createdAt,value
2017-04-18T00:51:04.669Z,0
2017-04-18T00:51:45.935Z,0
2017-04-18T00:52:26.355Z,0
2017-04-18T00:53:07.726Z,0
2017-04-18T00:53:48.119Z,0
2017-04-18T00:56:18.976Z,0
2017-04-18T00:56:59.389Z,0
2017-04-18T00:57:43.554Z,0
2017-04-18T00:58:23.999Z,0
2017-04-18T00:59:04.420Z,0
2017-04-18T00:59:45.395Z,0
2017-04-18T01:00:25.813Z,0
2017-04-18T01:01:06.647Z,0
2017-04-18T01:01:47.620Z,0
2017-04-18T01:02:28.049Z,0
2017-04-18T01:03:08.440Z,0
2017-04-18T01:03:48.883Z,0
2017-04-18T01:04:29.867Z,0
2017-04-18T01:05:10.331Z,0
2017-04-18T01:05:52.386Z,0
2017-04-18T01:06:33.724Z,0
2017-04-18T01:07:15.489Z,0
2017-04-18T01:07:55.882Z,0
2017-04-18T01:08:37.920Z,0
2017-04-18T01:09:18.308Z,0
2017-04-18T01:09:58.696Z,0
2017-04-18T01:10:39.111Z,0
2017-04-18T01:11:19.768Z,0
2017-04-18T01:12:00.163Z,0
2017-04-18T01:12:40.581Z,0
2017-04-18T01:13:20.993Z,0
2017-04-18T01:14:01.389Z,0
2017-04-18T01:14:41.835Z,0
2017-04-18T01:15:22.736Z,0
2017-04-18T01:16:04.060Z,0
2017-04-18T01:16:44.464Z,0
2017-04-18T01:17:24.876Z,0
2017-04-18T01:18:05.295Z,0
2017-04-18T01:18:46.902Z,0
2017-04-18T01:19:28.111Z,0
2017-04-18T01:20:09.906Z,0
2017-04-18T01:20:52.060Z,0
2017-04-18T01:21:32.451Z,0
2017-04-18T01:22:13.616Z,0
2017-04-18T01:22:54.021Z,0
2017-04-18T01:23:35.114Z,0
2017-04-18T01:24:15.524Z,0
2017-04-18T01:24:55.952Z,0
2017-04-18T01:25:36.321Z,0
2017-04-18T01:26:16.734Z,0
2017-04-18T01:26:57.157Z,0
2017-04-18T01:27:38.152Z,0
2017-04-18T01:28:19.398Z,0
2017-04-18T01:28:59.823Z,0
2017-04-18T01:29:41.979Z,0
2017-04-18T01:30:22.371Z,0
2017-04-18T01:31:03.630Z,0
2017-04-18T01:31:45.062Z,0
2017-04-18T01:32:25.470Z,0
2017-04-18T01:33:05.864Z,0
2017-04-18T01:33:46.281Z,0
2017-04-18T01:34:26.710Z,0
2017-04-18T01:35:07.111Z,0
2017-04-18T01:35:47.498Z,0
2017-04-18T01:36:27.920Z,0
2017-04-18T01:37:08.373Z,0
2017-04-18T01:37:48.763Z,0
2017-04-18T01:38:29.213Z,0
2017-04-18T01:39:09.602Z,0
2017-04-18T01:39:50.038Z,0
2017-04-18T01:40:30.426Z,0
2017-04-18T01:41:10.854Z,0
2017-04-18T01:41:51.248Z,0
2017-04-18T01:42:31.673Z,0
2017-04-18T01:43:12.063Z,0
2017-04-18T01:43:52.472Z,0
2017-04-18T01:44:32.911Z,0
2017-04-18T01:45:13.315Z,0
2017-04-18T01:45:53.715Z,0
2017-04-18T01:46:34.093Z,0
2017-04-18T01:47:14.505Z,0
2017-04-18T01:47:54.929Z,0
2017-04-18T01:48:35.328Z,0
2017-04-18T01:49:15.712Z,0
2017-04-18T01:49:56.122Z,0
2017-04-18T01:50:36.527Z,0
2017-04-18T01:51:16.964Z,0
2017-04-18T01:51:57.362Z,0
2017-04-18T01:52:37.784Z,0
2017-04-18T01:53:18.178Z,0
2017-04-18T01:53:58.574Z,0
2017-04-18T01:54:39.000Z,0
2017-04-18T01:55:19.396Z,0
2017-04-18T01:55:59.839Z,0
2017-04-18T01:56:40.237Z,0
2017-04-18T01:57:20.636Z,0
2017-04-18T01:58:01.044Z,0
2017-04-18T01:58:41.457Z,0
2017-04-18T01:59:21.862Z,0
2017-04-18T02:00:02.254Z,0
2017-04-18T02:00:42.646Z,0
2017-04-18T02:01:23.057Z,0
2017-04-18T02:02:03.450Z,0
2017-04-18T02:02:43.868Z,0
2017-04-18T02:03:24.242Z,0
2017-04-18T02:04:04.653Z,0
2017-04-18T02:04:45.080Z,0
2017-04-18T02:05:25.503Z,0
2017-04-18T02:06:05.905Z,0
2017-04-18T02:06:46.314Z,0
2017-04-18T02:07:26.718Z,0
2017-04-18T02:08:07.141Z,0
2017-04-18T02:08:47.575Z,0
2017-04-18T02:09:27.975Z,0
2017-04-18T02:10:08.370Z,0
2017-04-18T02:10:48.818Z,0
2017-04-18T02:11:29.195Z,0
2017-04-18T02:12:09.615Z,0
2017-04-18T02:12:49.985Z,0
2017-04-18T02:13:30.403Z,0
2017-04-18T02:14:10.827Z,0
2017-04-18T02:14:51.249Z,0
2017-04-18T02:15:31.642Z,0
2017-04-18T02:16:12.020Z,0
2017-04-18T02:16:52.407Z,0
2017-04-18T02:17:32.801Z,0
2017-04-18T02:18:13.234Z,0
2017-04-18T02:18:53.608Z,0
2017-04-18T02:19:34.026Z,0
2017-04-18T02:20:16.049Z,0
2017-04-18T02:20:56.499Z,0
2017-04-18T02:21:37.737Z,0
2017-04-18T02:22:19.075Z,0
2017-04-18T02:22:59.491Z,0
2017-04-18T02:23:39.857Z,0
2017-04-18T02:24:20.289Z,0
2017-04-18T02:25:00.660Z,0
2017-04-18T02:25:41.064Z,0
2017-04-18T02:26:21.486Z,0
2017-04-18T02:27:01.918Z,0
2017-04-18T02:27:42.379Z,0
2017-04-18T02:28:22.734Z,0
2017-04-18T02:29:03.146Z,0
2017-04-18T02:29:43.541Z,0
2017-04-18T02:30:23.992Z,0
2017-04-18T02:31:04.398Z,0
2017-04-18T02:31:44.804Z,0
2017-04-18T02:32:25.226Z,0
2017-04-18T02:33:05.608Z,0
2017-04-18T02:33:46.134Z,0
2017-04-18T02:34:26.552Z,0
2017-04-18T02:35:06.959Z,0
2017-04-18T02:35:47.375Z,0
2017-04-18T02:36:27.751Z,0
2017-04-18T02:37:08.194Z,0
2017-04-18T02:37:48.628Z,0
2017-04-18T02:38:29.014Z,0
2017-04-18T02:39:09.410Z,0
2017-04-18T02:39:52.410Z,0
2017-04-18T02:40:34.739Z,0
2017-04-18T02:41:15.121Z,0
2017-04-18T02:41:56.094Z,0
2017-04-18T02:42:36.962Z,0
2017-04-18T02:43:17.966Z,0
2017-04-18T02:43:58.910Z,0
2017-04-18T02:44:40.065Z,0
2017-04-18T02:45:20.439Z,0
2017-04-18T02:46:00.873Z,0
2017-04-18T02:46:41.232Z,0
2017-04-18T02:47:21.629Z,0
2017-04-18T02:48:02.059Z,0
2017-04-18T02:48:42.474Z,0
2017-04-18T02:49:22.888Z,0
2017-04-18T02:50:03.306Z,0
2017-04-18T02:50:43.717Z,0
2017-04-18T02:51:24.750Z,0
2017-04-18T02:52:05.145Z,0
2017-04-18T02:52:45.507Z,0
2017-04-18T02:53:26.557Z,0
2017-04-18T02:54:06.978Z,0
2017-04-18T06:26:01.621Z,230
2017-04-18T06:26:42.028Z,230
2017-04-18T06:27:22.470Z,225
2017-04-18T06:28:02.896Z,205
2017-04-18T06:28:43.307Z,180
2017-04-18T06:29:23.717Z,175
2017-04-18T06:30:04.154Z,190
2017-04-18T06:30:44.576Z,205
2017-04-18T06:31:25.011Z,225
2017-04-18T06:32:05.416Z,230
2017-04-18T06:32:45.805Z,230
2017-04-18T06:33:26.198Z,235
2017-04-18T06:34:06.646Z,230
2017-04-18T06:34:47.022Z,215
2017-04-18T06:35:27.483Z,185
2017-04-18T06:36:07.853Z,155
2017-04-18T06:36:48.292Z,145
2017-04-18T06:37:28.717Z,140
2017-04-18T06:38:09.116Z,140
2017-04-18T06:38:49.535Z,150
2017-04-18T06:39:29.974Z,170
2017-04-18T06:40:10.376Z,185
2017-04-18T06:40:50.741Z,205
2017-04-18T06:43:23.821Z,350
2017-04-18T06:44:04.230Z,350
2017-04-18T06:44:44.649Z,360
2017-04-18T06:45:25.081Z,375
2017-04-18T06:46:05.484Z,395
2017-04-18T06:46:45.913Z,395
2017-04-18T06:47:26.347Z,380
2017-04-18T06:48:06.792Z,370
2017-04-18T06:48:47.243Z,355
2017-04-18T06:49:27.683Z,355
2017-04-18T06:50:08.041Z,345
2017-04-18T06:50:48.480Z,340
2017-04-18T06:51:28.834Z,335
2017-04-18T06:52:09.247Z,345
2017-04-18T06:52:49.867Z,355
2017-04-18T06:53:30.050Z,365
2017-04-18T06:54:10.731Z,375
2017-04-18T06:54:50.879Z,365
2017-04-18T06:55:31.308Z,340
2017-04-18T06:56:11.721Z,315
2017-04-18T06:56:52.106Z,305
2017-04-18T06:59:05.078Z,315
2017-04-18T06:59:45.519Z,310
2017-04-18T07:00:25.938Z,290
2017-04-18T07:01:06.387Z,260
2017-04-18T07:01:46.824Z,255
2017-04-18T07:02:27.238Z,235
2017-04-18T07:03:07.682Z,230
2017-04-18T07:03:48.121Z,245
2017-04-18T07:04:28.560Z,240
2017-04-18T07:05:09.005Z,230
2017-04-18T07:05:49.442Z,225
2017-04-18T07:06:29.848Z,220
2017-04-18T07:07:10.221Z,195
2017-04-18T07:07:50.634Z,170
2017-04-18T07:08:31.043Z,165
2017-04-18T07:09:11.442Z,190
2017-04-18T07:09:51.848Z,225
2017-04-18T07:10:32.240Z,245
2017-04-18T07:11:12.669Z,270
2017-04-18T07:11:53.099Z,280
2017-04-18T07:12:33.545Z,280
2017-04-18T07:13:13.980Z,260
2017-04-18T07:13:54.392Z,245
2017-04-18T07:14:34.841Z,280
2017-04-18T07:15:15.263Z,335
2017-04-18T07:15:55.701Z,320
2017-04-18T07:16:36.090Z,325
2017-04-18T07:17:16.551Z,340
2017-04-18T07:17:56.947Z,335
2017-04-18T07:18:37.402Z,335
2017-04-18T07:19:17.804Z,350
2017-04-18T07:19:58.229Z,380
2017-04-18T07:20:38.642Z,410
2017-04-18T07:21:19.070Z,445
2017-04-18T07:21:59.463Z,455
2017-04-18T07:22:39.869Z,460
2017-04-18T07:23:20.291Z,485
2017-04-18T07:24:00.735Z,575
2017-04-18T07:24:41.179Z,595
2017-04-18T07:25:21.614Z,595
2017-04-18T07:26:02.050Z,615
2017-04-18T07:26:42.473Z,575
2017-04-18T07:27:22.893Z,575
2017-04-18T07:28:03.327Z,605
2017-04-18T07:28:43.744Z,640
2017-04-18T07:29:24.155Z,670
2017-04-18T07:30:04.586Z,735
2017-04-18T07:30:45.122Z,720
2017-04-18T07:31:25.504Z,615
2017-04-18T07:32:05.925Z,595
2017-04-18T07:32:46.315Z,660
2017-04-18T07:33:26.746Z,875
2017-04-18T07:34:07.154Z,1010
2017-04-18T07:34:47.568Z,1230
2017-04-18T07:35:27.963Z,1285
2017-04-18T07:36:08.340Z,980
2017-04-18T07:36:48.825Z,805
2017-04-18T07:37:29.248Z,640
2017-04-18T07:38:09.628Z,575
2017-04-18T07:38:50.073Z,580
2017-04-18T07:39:30.490Z,590
2017-04-18T07:40:10.890Z,765
2017-04-18T07:40:51.299Z,1125
2017-04-18T07:41:31.682Z,1210
2017-04-18T07:42:12.118Z,1820
2017-04-18T07:42:55.463Z,2250
2017-04-18T07:43:35.875Z,3470
2017-04-18T07:44:16.313Z,1535
2017-04-18T07:46:44.720Z,905
2017-04-18T07:47:25.151Z,1130
2017-04-18T07:48:05.588Z,1780
2017-04-18T07:50:38.915Z,765
2017-04-18T07:51:19.321Z,615
2017-04-18T07:51:59.775Z,825
2017-04-18T07:52:40.210Z,780
2017-04-18T07:53:20.609Z,820
2017-04-18T07:54:01.052Z,910
2017-04-18T07:54:41.440Z,1005
2017-04-18T07:55:21.862Z,1130
2017-04-18T07:56:02.292Z,1490
2017-04-18T07:56:42.710Z,1090
2017-04-18T07:57:23.128Z,885
2017-04-18T07:58:03.531Z,800
2017-04-18T07:58:43.911Z,655
2017-04-18T07:59:24.298Z,515
2017-04-18T08:00:04.739Z,530
2017-04-18T08:00:45.210Z,790
2017-04-18T08:01:25.651Z,680
2017-04-18T08:02:06.085Z,465
2017-04-18T08:02:46.496Z,330
2017-04-18T08:03:26.942Z,300
2017-04-18T08:04:07.339Z,415
2017-04-18T08:04:47.775Z,670
2017-04-18T08:05:28.205Z,535
2017-04-18T08:06:08.604Z,530
2017-04-18T08:06:49.066Z,550
2017-04-18T08:07:29.455Z,665
2017-04-18T08:08:09.855Z,590
2017-04-18T08:08:50.256Z,2095
2017-04-18T08:09:31.617Z,560
2017-04-18T08:10:12.083Z,725
2017-04-18T08:10:52.438Z,615
2017-04-18T08:11:33.462Z,480
2017-04-18T08:12:15.580Z,440
2017-04-18T08:12:56.008Z,325
2017-04-18T08:13:36.387Z,305
2017-04-18T08:14:16.810Z,370
2017-04-18T08:14:57.267Z,485
2017-04-18T08:15:37.635Z,590
2017-04-18T08:16:18.051Z,610
2017-04-18T08:17:00.046Z,595
2017-04-18T08:17:41.052Z,655
2017-04-18T08:18:21.459Z,1250
2017-04-18T08:19:01.854Z,840
2017-04-18T08:19:42.302Z,970
2017-04-18T08:20:22.699Z,4200
2017-04-18T10:12:26.292Z,1245
2017-04-18T10:13:06.738Z,1095
2017-04-18T10:13:47.167Z,1100
2017-04-18T10:14:27.586Z,1180
2017-04-18T10:15:08.011Z,1290
2017-04-18T10:15:48.462Z,1655
2017-04-18T10:16:28.896Z,1330
2017-04-18T10:17:09.351Z,1245
2017-04-18T10:17:49.746Z,1210
2017-04-18T10:18:30.193Z,1090
2017-04-18T10:19:10.626Z,970
2017-04-18T10:19:51.074Z,870
2017-04-18T10:20:31.524Z,820
2017-04-18T10:21:11.930Z,805
2017-04-18T10:21:52.361Z,805
2017-04-18T10:22:32.773Z,815
2017-04-18T10:23:13.168Z,835
2017-04-18T10:23:53.627Z,885
2017-04-18T10:24:34.034Z,940
2017-04-18T10:25:14.501Z,925
2017-04-18T10:25:54.915Z,915
2017-04-18T10:26:35.343Z,865
2017-04-18T10:27:15.728Z,820
2017-04-18T10:27:56.188Z,805
2017-04-18T10:28:36.580Z,800
2017-04-18T10:29:16.995Z,855
2017-04-18T10:29:57.420Z,930
2017-04-18T10:30:37.825Z,975
2017-04-18T10:31:18.242Z,1040
2017-04-18T10:31:58.671Z,1090
2017-04-18T10:32:39.095Z,1035
2017-04-18T10:33:19.467Z,960
2017-04-18T10:33:59.896Z,915
2017-04-18T10:34:40.335Z,810
2017-04-18T10:35:20.754Z,635
2017-04-18T10:36:01.200Z,435
2017-04-18T10:36:41.590Z,290
2017-04-18T10:37:22.042Z,195
2017-04-18T10:38:02.467Z,140
2017-04-18T10:38:42.925Z,120
2017-04-18T10:39:23.307Z,110
2017-04-18T10:40:03.734Z,110
2017-04-18T10:40:44.143Z,95
2017-04-18T10:41:24.554Z,85
2017-04-18T10:42:04.970Z,80
2017-04-18T10:42:45.385Z,95
2017-04-18T10:43:25.781Z,90
2017-04-18T10:44:06.170Z,115
2017-04-18T10:44:46.590Z,140
2017-04-18T10:45:27.003Z,150
2017-04-18T10:46:07.437Z,175
2017-04-18T10:46:47.860Z,185
2017-04-18T10:47:28.279Z,170
2017-04-18T10:48:08.697Z,185
2017-04-18T10:48:49.141Z,235
2017-04-18T10:49:29.541Z,265
2017-04-18T10:52:02.702Z,540
2017-04-18T10:52:43.141Z,790
2017-04-18T10:53:23.571Z,990
2017-04-18T10:54:04.006Z,1185
2017-04-18T10:54:44.439Z,1390
2017-04-18T10:57:17.803Z,3940
2017-04-18T10:57:58.239Z,4270
2017-04-18T10:58:38.672Z,2470
2017-04-18T10:59:19.101Z,2390
2017-04-18T10:59:59.532Z,4615
2017-04-18T11:00:39.970Z,2660
2017-04-18T11:01:20.369Z,3955
2017-04-18T11:02:00.778Z,2310
2017-04-18T11:02:41.232Z,1715
2017-04-18T11:03:21.632Z,2120
2017-04-18T11:04:02.017Z,1555
2017-04-18T11:04:42.427Z,3320
2017-04-18T11:05:22.856Z,2125
2017-04-18T11:07:56.180Z,1400
2017-04-18T11:08:36.620Z,1045
2017-04-18T11:09:17.058Z,925
2017-04-18T11:09:57.508Z,980
2017-04-18T11:10:37.932Z,1265
2017-04-18T11:11:18.357Z,1320
2017-04-18T11:11:58.815Z,1385
2017-04-18T11:12:39.269Z,1430
2017-04-18T11:13:19.691Z,1570
2017-04-18T11:14:00.077Z,2310
2017-04-18T11:14:40.532Z,2670
2017-04-18T11:15:20.948Z,2885
2017-04-18T11:16:01.349Z,2950
2017-04-18T11:16:41.759Z,2050
2017-04-18T11:17:22.159Z,1770
2017-04-18T11:18:02.649Z,1760
2017-04-18T11:18:43.072Z,1265
2017-04-18T11:19:23.480Z,945
2017-04-18T11:20:03.905Z,810
2017-04-18T11:20:44.334Z,705
2017-04-18T11:21:24.741Z,695
2017-04-18T11:22:05.157Z,685
2017-04-18T11:22:45.577Z,680
2017-04-18T11:23:26.134Z,680
2017-04-18T11:24:06.567Z,675
2017-04-18T11:24:46.960Z,680
2017-04-18T11:25:27.397Z,675
2017-04-18T11:26:07.812Z,665
2017-04-18T11:28:41.028Z,750
2017-04-18T11:29:21.469Z,805
2017-04-18T11:30:01.914Z,845
2017-04-18T11:30:42.365Z,870
2017-04-18T11:31:22.814Z,885
2017-04-18T11:32:03.253Z,890
2017-04-18T11:32:43.696Z,905
2017-04-18T11:33:24.127Z,920
2017-04-18T11:34:04.591Z,920
2017-04-18T11:34:45.033Z,920
2017-04-18T11:35:25.405Z,935
2017-04-18T11:36:05.832Z,940
2017-04-18T11:36:46.255Z,935
2017-04-18T11:37:26.668Z,940
2017-04-18T11:38:07.079Z,1010
2017-04-18T11:38:47.484Z,1115
2017-04-18T11:41:25.650Z,1630
2017-04-18T11:42:06.110Z,2420
2017-04-18T11:42:46.524Z,5170
2017-04-18T11:43:26.948Z,5170
2017-04-18T11:44:07.398Z,5755
2017-04-18T11:44:47.761Z,5390
2017-04-18T11:45:28.177Z,5580
2017-04-18T11:46:08.581Z,5180
2017-04-18T11:46:49.007Z,5455
2017-04-18T11:47:29.448Z,5385
2017-04-18T11:48:09.886Z,5480
2017-04-18T11:50:23.174Z,5290
2017-04-18T11:51:03.611Z,5225
2017-04-18T11:51:44.147Z,5350
2017-04-18T11:52:24.582Z,5370
2017-04-18T11:53:05.006Z,5495
2017-04-18T11:53:45.456Z,5460
2017-04-18T11:54:25.899Z,5710
2017-04-18T11:55:06.363Z,5720
2017-04-18T11:55:46.795Z,5525
2017-04-18T11:56:27.199Z,5470
2017-04-18T11:57:07.655Z,5610
2017-04-18T11:57:48.108Z,5735
2017-04-18T11:58:28.524Z,5750
2017-04-18T11:59:08.976Z,5700
2017-04-18T11:59:49.397Z,5575
2017-04-18T12:00:29.853Z,5455
2017-04-18T12:01:10.323Z,5595
2017-04-18T12:01:50.774Z,5800
2017-04-18T12:02:31.224Z,5865
2017-04-18T12:03:11.643Z,5505
2017-04-18T12:03:52.077Z,5735
2017-04-18T12:04:32.524Z,5545
2017-04-18T12:05:12.985Z,5490
2017-04-18T12:05:53.418Z,5535
2017-04-18T12:06:33.854Z,4880
2017-04-18T12:07:14.279Z,5620
2017-04-18T12:07:54.675Z,1855
2017-04-18T12:08:35.123Z,2795
2017-04-18T12:11:13.273Z,5445
2017-04-18T12:11:53.714Z,5785
2017-04-18T12:12:34.172Z,730
2017-04-18T12:13:14.679Z,775
2017-04-18T12:13:55.114Z,5995
2017-04-18T12:14:35.568Z,6130
2017-04-18T12:15:16.006Z,5865
2017-04-18T12:15:56.465Z,1540
2017-04-18T12:18:09.531Z,590
2017-04-18T12:18:49.998Z,635
2017-04-18T12:19:30.443Z,5045
2017-04-18T12:20:10.896Z,5870
2017-04-18T12:20:51.318Z,2340
2017-04-18T12:21:31.760Z,4850
2017-04-18T12:22:12.185Z,5755
2017-04-18T12:22:52.639Z,5705
2017-04-18T12:23:33.102Z,3935
2017-04-18T12:24:13.875Z,2050
2017-04-18T12:24:54.384Z,1245
2017-04-18T12:25:35.961Z,985
2017-04-18T12:26:17.055Z,950
2017-04-18T12:26:58.080Z,1100
2017-04-18T12:27:38.931Z,1210
2017-04-18T12:28:19.743Z,4810
2017-04-18T12:29:00.199Z,1255
2017-04-18T12:29:40.676Z,955
2017-04-18T12:30:21.142Z,895
2017-04-18T12:31:01.562Z,860
2017-04-18T12:31:42.048Z,995
2017-04-18T12:32:22.477Z,910
2017-04-18T12:33:02.896Z,2500
2017-04-18T12:33:43.328Z,1765
2017-04-18T12:34:23.746Z,1490
2017-04-18T12:35:04.180Z,835
2017-04-18T12:37:42.626Z,620
2017-04-18T12:38:23.062Z,570
2017-04-18T12:39:03.494Z,555
2017-04-18T12:39:43.932Z,540
2017-04-18T12:40:24.356Z,580
2017-04-18T12:41:04.771Z,680
2017-04-18T12:41:45.221Z,1350
2017-04-18T12:42:25.632Z,705
2017-04-18T12:43:06.063Z,830
2017-04-18T12:43:46.463Z,825
2017-04-18T12:44:26.919Z,930
2017-04-18T12:47:05.192Z,1365
2017-04-18T12:47:45.653Z,2520
2017-04-18T12:48:26.110Z,2855
2017-04-18T12:49:06.723Z,2535
2017-04-18T12:49:47.172Z,3285
2017-04-18T12:50:27.612Z,2980
2017-04-18T12:51:08.070Z,1945
2017-04-18T12:51:48.469Z,1850
2017-04-18T12:52:28.900Z,2815
2017-04-18T12:53:09.326Z,4810
2017-04-18T12:53:50.862Z,4990
2017-04-18T12:56:20.453Z,5370
2017-04-18T12:57:00.878Z,5285
2017-04-18T12:57:41.607Z,5175
2017-04-18T12:58:22.283Z,5055
2017-04-18T12:59:02.402Z,5265
2017-04-18T12:59:42.858Z,5620
2017-04-18T13:00:23.283Z,3405
2017-04-18T13:02:36.316Z,410
2017-04-18T13:03:16.765Z,370
2017-04-18T13:03:57.205Z,340
2017-04-18T13:04:37.658Z,300
2017-04-18T13:07:15.858Z,150
2017-04-18T13:07:56.313Z,150
2017-04-18T13:08:36.757Z,165
2017-04-18T13:09:17.220Z,190
2017-04-18T13:09:57.654Z,195
2017-04-18T13:10:38.101Z,220
2017-04-18T13:11:18.544Z,285
2017-04-18T13:11:58.965Z,395
2017-04-18T13:12:39.462Z,470
2017-04-18T13:13:19.890Z,680
2017-04-18T13:14:00.327Z,935
2017-04-18T13:14:40.743Z,1045
2017-04-18T13:15:21.141Z,1085
2017-04-18T13:16:01.590Z,1190
2017-04-18T13:16:42.039Z,840
2017-04-18T13:17:22.459Z,925
2017-04-18T13:18:02.947Z,855
2017-04-18T13:18:43.293Z,920
2017-04-18T13:19:23.734Z,910
2017-04-18T13:20:04.200Z,890
2017-04-18T13:20:44.591Z,825
2017-04-18T13:21:24.994Z,1010
2017-04-18T13:22:05.425Z,1110
2017-04-18T13:22:45.860Z,1040
2017-04-18T13:23:26.305Z,990
2017-04-18T13:24:06.707Z,1000
2017-04-18T13:24:47.156Z,985
2017-04-18T13:25:27.623Z,965
2017-04-18T13:26:08.039Z,1000
2017-04-18T13:26:48.464Z,965
2017-04-18T13:27:28.849Z,980
2017-04-18T13:28:09.255Z,935
2017-04-18T13:28:49.712Z,905
2017-04-18T13:31:24.329Z,820
2017-04-18T13:32:04.776Z,750
2017-04-18T13:32:45.206Z,685
2017-04-18T13:33:25.698Z,610
2017-04-18T13:34:06.092Z,560
2017-04-18T13:34:46.510Z,565
2017-04-18T13:35:26.952Z,550
2017-04-18T13:36:07.387Z,540
2017-04-18T13:36:47.877Z,515
2017-04-18T13:37:28.237Z,500
2017-04-18T13:38:08.667Z,495
2017-04-18T13:38:49.047Z,480
2017-04-18T13:39:29.511Z,480
2017-04-18T13:40:09.904Z,470
2017-04-18T13:40:50.361Z,460
2017-04-18T13:41:30.762Z,460
2017-04-18T13:42:11.151Z,455
2017-04-18T13:42:51.576Z,455
2017-04-18T13:43:31.962Z,450
2017-04-18T13:44:12.383Z,440
2017-04-18T13:44:52.875Z,435
2017-04-18T13:45:33.297Z,430
2017-04-18T13:46:13.701Z,425
2017-04-18T13:46:54.105Z,420
2017-04-18T13:47:34.646Z,415
2017-04-18T13:48:15.106Z,410
2017-04-18T13:48:55.534Z,405
2017-04-18T13:49:35.937Z,400
2017-04-18T13:50:16.357Z,395
2017-04-18T13:50:56.935Z,395
2017-04-18T13:51:37.372Z,390
2017-04-18T13:52:17.957Z,390
2017-04-18T13:52:59.036Z,410
2017-04-18T13:53:39.100Z,575
2017-04-18T13:56:07.713Z,435
2017-04-18T13:56:48.094Z,425
2017-04-18T13:57:28.908Z,405
2017-04-18T13:58:09.403Z,405
2017-04-18T13:58:49.772Z,530
2017-04-18T13:59:30.224Z,570
2017-04-18T14:00:10.622Z,495
2017-04-18T14:00:51.022Z,445
2017-04-18T14:01:31.446Z,415
2017-04-18T14:02:11.869Z,390
2017-04-18T14:02:52.224Z,385
2017-04-18T14:03:32.642Z,375
2017-04-18T14:06:06.123Z,395
2017-04-18T14:06:46.530Z,430
2017-04-18T14:07:26.961Z,405
2017-04-18T14:08:07.636Z,365
2017-04-18T14:08:48.029Z,535
2017-04-18T14:09:28.479Z,665
2017-04-18T14:10:08.999Z,655
2017-04-18T14:10:49.898Z,630
2017-04-18T14:11:30.429Z,615
2017-04-18T14:12:11.428Z,530
2017-04-18T14:12:51.633Z,505
2017-04-18T14:13:32.038Z,475
2017-04-18T14:14:12.805Z,485
2017-04-18T14:14:53.549Z,520
2017-04-18T14:15:33.940Z,575
2017-04-18T14:16:14.428Z,535
2017-04-18T14:16:54.816Z,520
2017-04-18T14:17:35.232Z,480
2017-04-18T14:18:15.678Z,490
2017-04-18T14:18:56.133Z,460
2017-04-18T14:19:36.561Z,405
2017-04-18T14:20:17.633Z,380
2017-04-18T14:20:58.290Z,365
2017-04-18T14:21:38.948Z,370
2017-04-18T14:22:19.254Z,375
2017-04-18T14:22:59.662Z,430
2017-04-18T14:23:40.116Z,450
2017-04-18T14:25:52.904Z,335
2017-04-18T14:26:33.333Z,330
2017-04-18T14:27:14.043Z,315
2017-04-18T14:27:54.334Z,310
2017-04-18T14:28:34.770Z,305
2017-04-18T14:29:15.197Z,295
2017-04-18T14:29:55.734Z,290
2017-04-18T14:30:36.181Z,290
2017-04-18T14:31:16.584Z,280
2017-04-18T14:31:56.996Z,280
2017-04-18T14:32:37.409Z,280
2017-04-18T14:33:17.831Z,275
2017-04-18T14:35:30.957Z,275
2017-04-18T14:36:11.397Z,275
2017-04-18T14:36:51.902Z,275
2017-04-18T14:37:32.450Z,270
2017-04-18T14:38:12.839Z,270
2017-04-18T14:38:53.282Z,270
2017-04-18T14:39:33.657Z,265
2017-04-18T14:40:14.103Z,265
2017-04-18T14:40:54.516Z,265
2017-04-18T14:43:12.448Z,270
2017-04-18T14:45:25.499Z,300
2017-04-18T14:46:05.925Z,340
2017-04-18T14:46:46.357Z,385
2017-04-18T14:47:26.747Z,405
2017-04-18T14:48:07.188Z,410
2017-04-18T14:48:47.756Z,435
2017-04-18T14:49:29.195Z,430
2017-04-18T14:50:09.828Z,460
2017-04-18T14:50:50.893Z,450
2017-04-18T14:51:31.293Z,495
2017-04-18T14:52:11.751Z,545
2017-04-18T14:52:52.536Z,500
2017-04-18T14:53:33.078Z,420
2017-04-18T14:54:13.681Z,410
2017-04-18T14:54:53.983Z,435
2017-04-18T14:55:34.391Z,430
2017-04-18T14:56:14.846Z,405
2017-04-18T14:56:55.260Z,360
2017-04-18T14:57:35.692Z,305
2017-04-18T14:58:16.085Z,245
2017-04-18T14:58:56.511Z,195
2017-04-18T14:59:36.927Z,155
2017-04-18T15:00:17.316Z,150
2017-04-18T15:00:57.733Z,155
2017-04-18T15:01:38.210Z,185
2017-04-18T15:02:18.645Z,195
2017-04-18T15:04:31.642Z,235
2017-04-18T15:05:12.049Z,315
2017-04-18T15:05:52.489Z,375
2017-04-18T15:06:32.858Z,415
2017-04-18T15:07:13.265Z,440
2017-04-18T15:07:53.709Z,445
2017-04-18T15:08:34.112Z,455
2017-04-18T15:09:14.505Z,475
2017-04-18T15:09:54.926Z,425
2017-04-18T15:12:33.263Z,250
2017-04-18T15:13:13.695Z,225
2017-04-18T15:13:54.125Z,205
2017-04-18T15:14:34.573Z,195
2017-04-18T15:17:07.684Z,175
2017-04-18T15:17:48.149Z,175
2017-04-18T15:18:28.541Z,170
2017-04-18T15:19:08.967Z,170
2017-04-18T15:19:49.392Z,170
2017-04-18T15:20:29.794Z,170
2017-04-18T15:21:10.235Z,170
2017-04-18T15:21:50.630Z,175
2017-04-18T15:22:31.053Z,180
2017-04-18T15:23:11.452Z,185
2017-04-18T15:23:51.969Z,190
2017-04-18T15:24:32.412Z,205
2017-04-18T15:25:12.941Z,205
2017-04-18T15:25:53.322Z,205
2017-04-18T15:28:06.356Z,210
2017-04-18T15:28:46.781Z,210
2017-04-18T15:29:27.197Z,210
2017-04-18T15:30:07.640Z,210
2017-04-18T15:30:48.082Z,210
2017-04-18T15:31:28.473Z,210
2017-04-18T15:32:08.889Z,210
2017-04-18T15:32:49.332Z,215
2017-04-18T15:33:29.964Z,230
2017-04-18T15:34:10.166Z,255
2017-04-18T15:34:50.596Z,230
2017-04-18T15:35:31.157Z,215
2017-04-18T15:36:11.433Z,195
2017-04-18T15:36:51.907Z,195
2017-04-18T15:37:32.257Z,215
2017-04-18T15:38:12.631Z,245
2017-04-18T15:38:53.120Z,265
2017-04-18T15:39:33.557Z,275
2017-04-18T15:40:13.962Z,285
2017-04-18T15:40:54.412Z,305
2017-04-18T15:41:34.806Z,345
2017-04-18T15:44:03.230Z,415
2017-04-18T15:44:43.659Z,420
2017-04-18T15:47:01.721Z,415
2017-04-18T15:47:42.123Z,400
2017-04-18T15:48:22.724Z,375
2017-04-18T15:49:02.990Z,350
2017-04-18T15:49:43.427Z,340
2017-04-18T15:50:23.815Z,330
2017-04-18T15:51:04.225Z,325
2017-04-18T15:51:44.660Z,320
2017-04-18T15:53:58.194Z,315
2017-04-18T15:54:38.628Z,310
2017-04-18T15:55:19.052Z,290
2017-04-18T15:55:59.471Z,280
2017-04-18T15:56:40.535Z,270
2017-04-18T15:57:20.953Z,260
2017-04-18T15:58:01.348Z,255
2017-04-18T15:58:41.774Z,245
2017-04-18T15:59:22.183Z,245
2017-04-18T16:00:02.599Z,235
2017-04-18T16:00:43.025Z,230
2017-04-18T16:02:56.507Z,210
2017-04-18T16:03:36.943Z,205
2017-04-18T16:04:17.348Z,200
2017-04-18T16:04:57.796Z,195
2017-04-18T16:07:30.821Z,195
2017-04-18T16:08:11.310Z,200
2017-04-18T16:08:51.674Z,200
2017-04-18T16:09:32.040Z,195
2017-04-18T16:10:12.441Z,190
2017-04-18T16:10:52.853Z,190
2017-04-18T16:11:33.279Z,185
2017-04-18T16:12:13.690Z,180
2017-04-18T16:12:54.114Z,175
2017-04-18T16:13:34.577Z,170
2017-04-18T16:14:14.906Z,175
2017-04-18T16:14:55.331Z,180
2017-04-18T16:15:35.718Z,175
2017-04-18T16:18:14.108Z,190
2017-04-18T16:18:54.522Z,190
2017-04-18T16:19:34.958Z,190
2017-04-18T16:20:15.383Z,190
2017-04-18T16:20:55.831Z,190
2017-04-18T16:21:36.230Z,205
2017-04-18T16:22:16.643Z,215
2017-04-18T16:22:57.075Z,220
2017-04-18T16:23:37.511Z,225
2017-04-18T16:24:17.938Z,235
2017-04-18T16:24:58.308Z,245
2017-04-18T16:25:38.709Z,245
2017-04-18T16:26:19.114Z,250
2017-04-18T16:26:59.652Z,250
2017-04-18T16:27:39.921Z,240
2017-04-18T16:28:20.331Z,240
2017-04-18T16:29:00.844Z,270
2017-04-18T16:29:41.195Z,250
2017-04-18T16:30:21.619Z,200
2017-04-18T16:31:02.031Z,170
2017-04-18T16:31:42.403Z,145
2017-04-18T16:32:22.816Z,120
2017-04-18T16:33:03.237Z,110
2017-04-18T16:33:43.609Z,120
2017-04-18T16:34:24.034Z,135
2017-04-18T16:35:04.435Z,145
2017-04-18T16:35:44.866Z,135
2017-04-18T16:37:57.730Z,135
2017-04-18T16:38:38.152Z,135
2017-04-18T16:39:18.574Z,130